createdAt,value
2022-08-21T00:00:06.571Z,17.02
2022-08-21T00:02:32.833Z,16.94
2022-08-21T00:04:59.126Z,17.10
2022-08-21T00:07:25.431Z,17.16
2022-08-21T00:09:51.795Z,17.29
2022-08-21T00:12:18.029Z,17.30
2022-08-21T00:14:44.273Z,17.32
2022-08-21T00:17:12.843Z,17.30
2022-08-21T00:19:39.102Z,17.15
2022-08-21T00:22:05.341Z,17.16
2022-08-21T00:24:31.577Z,17.21
2022-08-21T00:26:57.823Z,16.89
2022-08-21T00:29:24.067Z,16.70
2022-08-21T00:31:50.287Z,16.89
2022-08-21T00:34:16.525Z,16.84
2022-08-21T00:36:42.762Z,16.72
2022-08-21T00:39:09.016Z,16.90
2022-08-21T00:41:37.337Z,16.96
2022-08-21T00:44:05.641Z,16.79
2022-08-21T00:46:31.878Z,16.79
2022-08-21T00:48:59.258Z,16.70
2022-08-21T00:51:45.830Z,16.75
2022-08-21T00:54:19.022Z,16.70
2022-08-21T00:56:46.282Z,16.72
2022-08-21T00:59:12.516Z,16.73
2022-08-21T01:01:38.797Z,16.68
2022-08-21T01:04:05.100Z,16.60
2022-08-21T01:06:31.324Z,16.55
2022-08-21T01:08:57.563Z,16.54
2022-08-21T01:11:23.798Z,16.55
2022-08-21T01:13:50.065Z,16.65
2022-08-21T01:16:17.043Z,16.24
2022-08-21T01:18:43.837Z,16.30
2022-08-21T01:21:17.594Z,16.22
2022-08-21T01:23:46.125Z,16.29
2022-08-21T01:26:12.811Z,16.29
2022-08-21T01:28:43.049Z,16.26
2022-08-21T01:31:09.287Z,16.31
2022-08-21T01:33:35.576Z,16.20
2022-08-21T01:36:01.817Z,16.06
2022-08-21T01:38:28.059Z,16.25
2022-08-21T01:40:55.224Z,16.16
2022-08-21T01:43:30.691Z,16.06
2022-08-21T01:46:05.341Z,16.16
2022-08-21T01:48:31.832Z,16.26
2022-08-21T01:50:58.080Z,16.40
2022-08-21T01:53:27.905Z,16.21
2022-08-21T01:55:59.672Z,16.21
2022-08-21T01:58:25.926Z,15.90
2022-08-21T02:00:52.255Z,15.83
2022-08-21T02:03:35.803Z,15.81
2022-08-21T02:06:03.179Z,15.99
2022-08-21T02:08:29.529Z,16.15
2022-08-21T02:10:55.764Z,16.17
2022-08-21T02:13:22.069Z,16.23
2022-08-21T02:15:48.697Z,16.19
2022-08-21T02:18:14.957Z,16.14
2022-08-21T02:20:43.640Z,16.19
2022-08-21T02:23:10.138Z,16.10
2022-08-21T02:25:36.388Z,15.92
2022-08-21T02:28:06.556Z,16.05
2022-08-21T02:30:34.051Z,16.07
2022-08-21T02:33:00.308Z,16.06
2022-08-21T02:35:26.545Z,16.00
2022-08-21T02:37:53.684Z,16.02
2022-08-21T02:40:21.058Z,15.96
2022-08-21T02:42:47.336Z,15.90
2022-08-21T02:45:13.571Z,15.76
2022-08-21T02:47:39.828Z,15.80
2022-08-21T02:50:06.289Z,15.75
2022-08-21T02:52:32.512Z,15.87
2022-08-21T02:54:58.763Z,15.53
2022-08-21T02:57:24.989Z,15.55
2022-08-21T02:59:51.237Z,15.54
2022-08-21T03:02:17.464Z,15.68
2022-08-21T03:04:46.659Z,15.60
2022-08-21T03:07:13.168Z,15.61
2022-08-21T03:09:39.416Z,15.69
2022-08-21T03:12:17.065Z,15.56
2022-08-21T03:14:43.310Z,15.62
2022-08-21T03:17:09.544Z,15.70
2022-08-21T03:19:35.778Z,15.72
2022-08-21T03:22:01.999Z,15.64
2022-08-21T03:24:28.242Z,15.46
2022-08-21T03:26:54.475Z,15.55
2022-08-21T03:29:21.149Z,15.47
2022-08-21T03:31:47.380Z,15.41
2022-08-21T03:34:15.389Z,15.13
2022-08-21T03:36:41.612Z,15.11
2022-08-21T03:39:07.851Z,15.04
2022-08-21T03:41:34.076Z,15.13
2022-08-21T03:44:00.314Z,15.18
2022-08-21T03:46:26.557Z,15.20
2022-08-21T03:48:52.788Z,15.12
2022-08-21T03:51:19.274Z,15.13
2022-08-21T03:53:45.499Z,15.30
2022-08-21T03:56:11.752Z,15.35
2022-08-21T03:58:37.984Z,15.41
2022-08-21T04:01:07.468Z,15.37
2022-08-21T04:03:34.458Z,15.36
2022-08-21T04:06:00.704Z,15.39
2022-08-21T04:08:26.941Z,15.42
2022-08-21T04:10:53.403Z,15.41
2022-08-21T04:13:19.679Z,15.43
2022-08-21T04:15:45.911Z,15.41
2022-08-21T04:18:12.135Z,15.36
2022-08-21T04:20:38.464Z,15.40
2022-08-21T04:23:04.697Z,15.38
2022-08-21T04:25:30.956Z,15.41
2022-08-21T04:27:57.187Z,15.35
2022-08-21T04:30:27.952Z,15.23
2022-08-21T04:32:55.172Z,15.26
2022-08-21T04:35:21.996Z,15.23
2022-08-21T04:37:48.275Z,14.96
2022-08-21T04:40:15.269Z,15.12
2022-08-21T04:43:01.818Z,15.21
2022-08-21T04:45:38.409Z,15.24
2022-08-21T04:48:09.592Z,15.27
2022-08-21T04:50:46.954Z,15.34
2022-08-21T04:53:14.608Z,15.36
2022-08-21T04:55:41.037Z,15.36
2022-08-21T04:58:07.575Z,15.35
2022-08-21T05:00:33.831Z,15.34
2022-08-21T05:03:00.531Z,15.34
2022-08-21T05:05:27.965Z,15.33
2022-08-21T05:07:54.201Z,15.31
2022-08-21T05:10:20.480Z,15.42
2022-08-21T05:12:46.713Z,15.48
2022-08-21T05:15:13.703Z,15.44
2022-08-21T05:17:40.612Z,15.48
2022-08-21T05:20:07.013Z,15.54
2022-08-21T05:22:33.241Z,15.44
2022-08-21T05:24:59.478Z,15.49
2022-08-21T05:27:25.709Z,15.59
2022-08-21T05:29:54.089Z,15.67
2022-08-21T05:32:20.331Z,15.69
2022-08-21T05:34:46.582Z,15.67
2022-08-21T05:37:12.827Z,15.31
2022-08-21T05:40:05.295Z,14.82
2022-08-21T05:42:25.279Z,14.82
2022-08-21T05:44:51.512Z,15.05
2022-08-21T05:47:18.659Z,15.48
2022-08-21T05:49:44.906Z,16.02
2022-08-21T05:52:11.141Z,16.89
2022-08-21T05:54:37.629Z,17.19
2022-08-21T05:57:03.939Z,17.70
2022-08-21T05:59:30.192Z,18.45
2022-08-21T06:01:56.498Z,19.44
2022-08-21T06:04:22.802Z,20.00
2022-08-21T06:06:49.039Z,20.49
2022-08-21T06:09:15.287Z,20.53
2022-08-21T06:11:41.525Z,20.49
2022-08-21T06:14:07.747Z,20.91
2022-08-21T06:16:33.984Z,21.32
2022-08-21T06:19:02.868Z,21.47
2022-08-21T06:21:29.421Z,21.04
2022-08-21T06:24:00.517Z,20.81
2022-08-21T06:26:26.752Z,20.31
2022-08-21T06:28:53.001Z,20.25
2022-08-21T06:31:19.950Z,20.02
2022-08-21T06:33:46.261Z,20.59
2022-08-21T06:36:12.503Z,20.23
2022-08-21T06:38:38.741Z,20.31
2022-08-21T06:41:05.793Z,20.16
2022-08-21T06:43:39.460Z,20.48
2022-08-21T06:46:06.483Z,21.41
2022-08-21T06:48:32.709Z,22.26
2022-08-21T06:50:59.461Z,22.26
2022-08-21T06:53:25.688Z,22.26
2022-08-21T06:55:51.924Z,22.15
2022-08-21T06:58:18.162Z,22.69
2022-08-21T07:00:45.402Z,22.96
2022-08-21T07:03:18.372Z,23.11
2022-08-21T07:05:44.616Z,23.20
2022-08-21T07:08:10.840Z,23.04
2022-08-21T07:10:37.081Z,23.40
2022-08-21T07:13:03.630Z,23.32
2022-08-21T07:15:30.499Z,23.41
2022-08-21T07:17:57.008Z,23.61
2022-08-21T07:20:23.314Z,23.41
2022-08-21T07:22:49.572Z,23.80
2022-08-21T07:25:15.821Z,24.02
2022-08-21T07:27:42.063Z,24.11
2022-08-21T07:30:08.447Z,24.38
2022-08-21T07:32:34.673Z,24.58
2022-08-21T07:35:00.906Z,24.05
2022-08-21T07:37:27.155Z,24.12
2022-08-21T07:39:53.430Z,24.19
2022-08-21T07:42:19.665Z,24.04
2022-08-21T07:44:45.913Z,23.54
2022-08-21T07:47:12.157Z,23.88
2022-08-21T07:49:38.388Z,23.92
2022-08-21T07:52:04.620Z,24.31
2022-08-21T07:54:33.833Z,23.62
2022-08-21T07:57:00.867Z,23.82
2022-08-21T07:59:27.112Z,24.15
2022-08-21T08:01:53.351Z,23.67
2022-08-21T08:04:23.259Z,23.61
2022-08-21T08:06:52.055Z,23.66
2022-08-21T08:09:18.320Z,23.78
2022-08-21T08:11:44.555Z,24.03
2022-08-21T08:14:10.853Z,24.73
2022-08-21T08:16:37.095Z,24.83
2022-08-21T08:19:03.324Z,24.36
2022-08-21T08:21:29.596Z,24.39
2022-08-21T08:23:55.823Z,24.03
2022-08-21T08:26:22.081Z,24.13
2022-08-21T08:28:48.308Z,24.24
2022-08-21T08:31:14.587Z,24.36
2022-08-21T08:33:40.897Z,24.74
2022-08-21T08:36:10.067Z,24.78
2022-08-21T08:38:36.301Z,24.84
2022-08-21T08:41:04.897Z,24.71
2022-08-21T08:43:31.172Z,24.93
2022-08-21T08:45:57.851Z,25.30
2022-08-21T08:48:31.888Z,25.24
2022-08-21T08:50:58.199Z,24.86
2022-08-21T08:53:26.453Z,24.96
2022-08-21T08:55:52.792Z,25.17
2022-08-21T08:58:29.410Z,24.93
2022-08-21T09:00:55.670Z,24.96
2022-08-21T09:03:22.529Z,25.09
2022-08-21T09:06:03.383Z,24.86
2022-08-21T09:08:32.574Z,24.45
2022-08-21T09:11:02.977Z,24.73
2022-08-21T09:13:38.497Z,24.90
2022-08-21T09:16:16.351Z,25.25
2022-08-21T09:19:00.523Z,25.44
2022-08-21T09:21:44.754Z,25.59
2022-08-21T09:24:19.306Z,25.19
2022-08-21T09:26:48.315Z,25.11
2022-08-21T09:29:14.581Z,24.91
2022-08-21T09:31:40.823Z,25.24
2022-08-21T09:34:08.560Z,25.42
2022-08-21T09:36:48.483Z,24.27
2022-08-21T09:39:23.547Z,24.34
2022-08-21T09:41:55.755Z,24.00
2022-08-21T09:44:25.445Z,24.45
2022-08-21T09:46:51.964Z,24.30
2022-08-21T09:49:26.833Z,24.63
2022-08-21T09:51:53.201Z,25.39
2022-08-21T09:54:19.430Z,25.83
2022-08-21T09:56:51.704Z,25.14
2022-08-21T09:59:17.885Z,25.41
2022-08-21T10:01:48.636Z,25.64
2022-08-21T10:04:14.856Z,25.48
2022-08-21T10:06:41.092Z,24.42
2022-08-21T10:09:13.533Z,24.22
2022-08-21T10:11:46.379Z,24.31
2022-08-21T10:14:14.820Z,24.81
2022-08-21T10:16:53.765Z,25.24
2022-08-21T10:19:41.373Z,26.26
2022-08-21T10:22:13.657Z,26.17
2022-08-21T10:24:44.067Z,25.45
2022-08-21T10:27:19.681Z,25.16
2022-08-21T10:29:48.787Z,25.81
2022-08-21T10:32:26.321Z,25.38
2022-08-21T10:35:13.255Z,24.31
2022-08-21T10:37:47.054Z,24.11
2022-08-21T10:40:20.116Z,24.46
2022-08-21T10:42:59.974Z,25.35
2022-08-21T10:45:33.529Z,25.98
2022-08-21T10:48:03.274Z,25.96
2022-08-21T10:50:38.522Z,26.21
2022-08-21T10:53:13.667Z,26.06
2022-08-21T10:55:49.081Z,26.17
2022-08-21T10:58:17.949Z,26.45
2022-08-21T11:00:44.195Z,26.30
2022-08-21T11:03:29.305Z,26.38
2022-08-21T11:05:56.340Z,26.42
2022-08-21T11:08:26.803Z,26.01
2022-08-21T11:11:05.108Z,26.25
2022-08-21T11:13:39.857Z,25.39
2022-08-21T11:16:17.248Z,24.79
2022-08-21T11:19:03.752Z,25.83
2022-08-21T11:21:36.737Z,26.30
2022-08-21T11:24:04.725Z,26.20
2022-08-21T11:26:46.565Z,25.00
2022-08-21T11:29:20.629Z,24.82
2022-08-21T11:31:53.011Z,24.18
2022-08-21T11:34:30.511Z,24.07
2022-08-21T11:36:59.703Z,23.70
2022-08-21T11:39:34.848Z,23.43
2022-08-21T11:42:19.742Z,23.44
2022-08-21T11:44:49.771Z,23.47
2022-08-21T11:47:18.827Z,23.45
2022-08-21T11:49:50.936Z,23.25
2022-08-21T11:52:27.113Z,23.11
2022-08-21T11:54:55.826Z,23.17
2022-08-21T11:57:23.863Z,23.18
2022-08-21T11:59:56.055Z,23.41
2022-08-21T12:02:23.971Z,23.54
2022-08-21T12:04:56.310Z,23.44
2022-08-21T12:07:31.503Z,23.30
2022-08-21T12:09:58.587Z,23.90
2022-08-21T12:12:35.002Z,24.52
2022-08-21T12:15:10.247Z,25.07
2022-08-21T12:17:37.489Z,25.72
2022-08-21T12:20:17.261Z,25.98
2022-08-21T12:22:48.307Z,25.58
2022-08-21T12:25:21.715Z,24.71
2022-08-21T12:27:54.650Z,24.27
2022-08-21T12:30:34.098Z,24.40
2022-08-21T12:33:01.440Z,25.19
2022-08-21T12:35:41.131Z,25.58
2022-08-21T12:38:08.816Z,25.91
2022-08-21T12:40:39.896Z,26.14
2022-08-21T12:43:06.257Z,25.76
2022-08-21T12:45:38.019Z,25.44
2022-08-21T12:48:09.257Z,25.43
2022-08-21T12:50:41.466Z,25.79
2022-08-21T12:53:18.532Z,25.96
2022-08-21T12:55:46.972Z,25.91
2022-08-21T12:58:20.216Z,26.10
2022-08-21T13:01:05.817Z,26.43
2022-08-21T13:03:32.410Z,25.75
2022-08-21T13:05:58.993Z,25.17
2022-08-21T13:08:25.536Z,25.44
2022-08-21T13:10:56.754Z,25.88
2022-08-21T13:13:25.691Z,25.71
2022-08-21T13:15:58.524Z,25.92
2022-08-21T13:18:25.367Z,26.02
2022-08-21T13:20:51.584Z,26.05
2022-08-21T13:23:21.386Z,26.04
2022-08-21T13:25:47.621Z,26.27
2022-08-21T13:28:13.922Z,26.13
2022-08-21T13:30:40.996Z,26.02
2022-08-21T13:33:12.731Z,26.16
2022-08-21T13:35:48.105Z,26.12
2022-08-21T13:38:14.441Z,25.98
2022-08-21T13:40:50.556Z,26.07
2022-08-21T13:43:19.936Z,25.65
2022-08-21T13:45:51.879Z,24.91
2022-08-21T13:48:18.124Z,24.78
2022-08-21T13:50:44.347Z,24.88
2022-08-21T13:53:29.422Z,25.13
2022-08-21T13:56:00.400Z,24.87
2022-08-21T13:58:28.123Z,25.13
2022-08-21T14:00:54.442Z,25.30
2022-08-21T14:03:26.833Z,25.34
2022-08-21T14:05:53.073Z,25.72
2022-08-21T14:08:30.309Z,25.68
2022-08-21T14:10:57.897Z,25.77
2022-08-21T14:13:33.254Z,25.50
2022-08-21T14:16:02.476Z,25.29
2022-08-21T14:18:28.716Z,25.22
2022-08-21T14:21:05.209Z,25.33
2022-08-21T14:23:31.447Z,24.74
2022-08-21T14:25:59.378Z,24.55
2022-08-21T14:28:28.076Z,24.31
2022-08-21T14:30:55.081Z,24.12
2022-08-21T14:33:24.379Z,24.16
2022-08-21T14:35:50.615Z,24.14
2022-08-21T14:38:17.962Z,24.11
2022-08-21T14:40:44.661Z,24.08
2022-08-21T14:43:10.925Z,24.02
2022-08-21T14:45:37.158Z,24.04
2022-08-21T14:48:03.418Z,24.10
2022-08-21T14:50:29.647Z,24.46
2022-08-21T14:52:56.152Z,24.63
2022-08-21T14:55:22.424Z,25.00
2022-08-21T14:57:49.915Z,25.31
2022-08-21T15:00:17.051Z,25.42
2022-08-21T15:02:43.462Z,25.13
2022-08-21T15:05:09.695Z,24.73
2022-08-21T15:07:35.921Z,24.48
2022-08-21T15:10:02.161Z,24.27
2022-08-21T15:12:28.384Z,24.32
2022-08-21T15:14:54.637Z,24.19
2022-08-21T15:17:20.878Z,24.12
2022-08-21T15:19:47.121Z,24.09
2022-08-21T15:22:18.661Z,23.97
2022-08-21T15:24:45.433Z,23.81
2022-08-21T15:27:11.661Z,23.88
2022-08-21T15:29:41.064Z,23.86
2022-08-21T15:32:16.457Z,23.79
2022-08-21T15:34:42.714Z,23.74
2022-08-21T15:37:08.943Z,23.74
2022-08-21T15:39:37.338Z,23.73
2022-08-21T15:42:10.637Z,23.69
2022-08-21T15:44:37.774Z,23.67
2022-08-21T15:47:04.092Z,23.72
2022-08-21T15:49:30.323Z,24.11
2022-08-21T15:51:56.559Z,24.43
2022-08-21T15:54:22.796Z,24.63
2022-08-21T15:56:49.254Z,24.75
2022-08-21T15:59:16.261Z,24.93
2022-08-21T16:01:44.672Z,24.81
2022-08-21T16:04:11.571Z,24.35
2022-08-21T16:06:54.307Z,24.31
2022-08-21T16:09:23.146Z,24.24
2022-08-21T16:11:49.397Z,24.12
2022-08-21T16:14:15.792Z,24.21
2022-08-21T16:16:42.038Z,24.22
2022-08-21T16:19:08.307Z,24.09
2022-08-21T16:21:34.732Z,24.29
2022-08-21T16:24:00.977Z,24.29
2022-08-21T16:26:27.226Z,24.37
2022-08-21T16:28:53.836Z,24.48
2022-08-21T16:31:22.151Z,24.43
2022-08-21T16:33:49.631Z,24.26
2022-08-21T16:36:17.391Z,24.18
2022-08-21T16:38:43.757Z,24.10
2022-08-21T16:41:11.123Z,23.81
2022-08-21T16:43:37.568Z,23.52
2022-08-21T16:46:03.822Z,23.38
2022-08-21T16:48:30.050Z,23.41
2022-08-21T16:50:56.918Z,23.49
2022-08-21T16:53:25.385Z,23.52
2022-08-21T16:55:51.687Z,23.40
2022-08-21T16:58:21.061Z,23.37
2022-08-21T17:00:47.369Z,23.36
2022-08-21T17:03:15.025Z,23.39
2022-08-21T17:05:41.280Z,23.28
2022-08-21T17:08:07.518Z,23.27
2022-08-21T17:10:33.764Z,23.25
2022-08-21T17:13:00.159Z,23.16
2022-08-21T17:15:28.172Z,23.21
2022-08-21T17:17:54.396Z,23.10
2022-08-21T17:20:20.664Z,23.04
2022-08-21T17:22:46.914Z,23.07
2022-08-21T17:25:13.256Z,23.01
2022-08-21T17:27:39.642Z,22.91
2022-08-21T17:30:06.167Z,22.81
2022-08-21T17:32:32.391Z,22.70
2022-08-21T17:34:58.638Z,22.54
2022-08-21T17:37:29.072Z,22.50
2022-08-21T17:39:55.622Z,22.40
2022-08-21T17:42:21.891Z,22.38
2022-08-21T17:44:48.137Z,22.37
2022-08-21T17:47:14.528Z,22.31
2022-08-21T17:49:40.913Z,22.19
2022-08-21T17:52:07.266Z,22.11
2022-08-21T17:54:33.936Z,22.00
2022-08-21T17:57:00.173Z,21.86
2022-08-21T17:59:26.411Z,21.79
2022-08-21T18:01:52.893Z,21.77
2022-08-21T18:04:19.137Z,21.78
2022-08-21T18:06:45.424Z,21.70
2022-08-21T18:09:11.886Z,21.67
2022-08-21T18:11:38.253Z,21.62
2022-08-21T18:14:07.575Z,21.52
2022-08-21T18:16:34.369Z,21.40
2022-08-21T18:19:01.003Z,21.30
2022-08-21T18:21:27.298Z,21.28
2022-08-21T18:23:53.538Z,21.16
2022-08-21T18:26:21.788Z,20.85
2022-08-21T18:28:48.091Z,20.85
2022-08-21T18:31:14.344Z,20.87
2022-08-21T18:33:43.715Z,20.84
2022-08-21T18:36:24.414Z,20.79
2022-08-21T18:38:51.756Z,20.55
2022-08-21T18:41:17.995Z,20.57
2022-08-21T18:43:44.231Z,20.55
2022-08-21T18:46:10.468Z,20.56
2022-08-21T18:48:36.705Z,20.51
2022-08-21T18:51:02.953Z,20.47
2022-08-21T18:53:32.897Z,20.41
2022-08-21T18:56:04.907Z,20.34
2022-08-21T18:58:48.784Z,20.24
2022-08-21T19:01:15.103Z,19.89
2022-08-21T19:03:43.987Z,19.89
2022-08-21T19:06:11.978Z,19.83
2022-08-21T19:08:38.341Z,19.43
2022-08-21T19:11:04.658Z,19.51
2022-08-21T19:13:31.203Z,19.57
2022-08-21T19:15:57.942Z,19.69
2022-08-21T19:18:28.282Z,19.64
2022-08-21T19:20:55.040Z,19.58
2022-08-21T19:23:21.339Z,19.25
2022-08-21T19:25:59.885Z,18.99
2022-08-21T19:28:28.005Z,19.32
2022-08-21T19:31:10.125Z,19.24
2022-08-21T19:33:37.984Z,19.19
2022-08-21T19:36:05.758Z,18.77
2022-08-21T19:38:31.990Z,19.06
2022-08-21T19:40:58.413Z,19.06
2022-08-21T19:43:24.768Z,19.07
2022-08-21T19:45:53.084Z,19.04
2022-08-21T19:48:19.316Z,18.99
2022-08-21T19:50:45.561Z,19.01
2022-08-21T19:53:12.102Z,19.12
2022-08-21T19:55:41.322Z,18.99
2022-08-21T19:58:17.900Z,18.86
2022-08-21T20:00:48.906Z,18.84
2022-08-21T20:03:15.147Z,18.75
2022-08-21T20:05:41.388Z,18.65
2022-08-21T20:08:11.751Z,18.51
2022-08-21T20:10:46.606Z,18.59
2022-08-21T20:13:16.370Z,18.48
2022-08-21T20:15:42.596Z,18.30
2022-08-21T20:18:08.835Z,18.32
2022-08-21T20:20:35.066Z,18.27
2022-08-21T20:23:01.465Z,18.33
2022-08-21T20:25:37.029Z,18.20
2022-08-21T20:28:03.437Z,18.16
2022-08-21T20:30:29.713Z,18.22
2022-08-21T20:32:56.077Z,18.25
2022-08-21T20:35:23.036Z,18.24
2022-08-21T20:37:58.637Z,17.91
2022-08-21T20:40:28.041Z,17.61
2022-08-21T20:42:58.404Z,17.73
2022-08-21T20:45:29.149Z,17.68
2022-08-21T20:48:04.507Z,17.83
2022-08-21T20:50:31.594Z,17.96
2022-08-21T20:53:00.817Z,17.93
2022-08-21T20:55:29.263Z,17.69
2022-08-21T20:57:59.100Z,17.46
2022-08-21T21:00:26.950Z,17.54
2022-08-21T21:02:59.945Z,17.48
2022-08-21T21:05:31.183Z,17.67
2022-08-21T21:07:59.484Z,17.71
2022-08-21T21:10:30.773Z,17.67
2022-08-21T21:13:04.100Z,17.67
2022-08-21T21:15:31.539Z,17.63
2022-08-21T21:17:57.731Z,17.59
2022-08-21T21:20:27.316Z,17.59
2022-08-21T21:22:55.066Z,17.47
2022-08-21T21:25:25.385Z,17.50
2022-08-21T21:28:07.726Z,17.47
2022-08-21T21:30:46.461Z,17.43
2022-08-21T21:33:13.639Z,17.43
2022-08-21T21:35:49.350Z,17.35
2022-08-21T21:38:22.951Z,17.29
2022-08-21T21:40:55.224Z,17.26
2022-08-21T21:43:37.867Z,17.14
2022-08-21T21:46:17.572Z,17.08
2022-08-21T21:48:49.291Z,17.08
2022-08-21T21:51:28.406Z,16.89
2022-08-21T21:54:01.226Z,16.97
2022-08-21T21:56:33.993Z,16.99
2022-08-21T21:59:20.276Z,17.06
2022-08-21T22:01:51.845Z,17.05
2022-08-21T22:04:31.589Z,17.10
2022-08-21T22:07:17.664Z,17.07
2022-08-21T22:09:45.449Z,16.95
2022-08-21T22:12:17.873Z,16.95
2022-08-21T22:14:46.652Z,16.86
2022-08-21T22:17:21.356Z,16.67
2022-08-21T22:19:47.589Z,16.76
2022-08-21T22:22:15.460Z,16.78
2022-08-21T22:24:42.676Z,16.79
2022-08-21T22:27:10.386Z,16.82
2022-08-21T22:29:42.754Z,16.72
2022-08-21T22:32:09.133Z,16.67
2022-08-21T22:34:35.665Z,16.74
2022-08-21T22:37:03.350Z,16.82
2022-08-21T22:39:39.033Z,16.71
2022-08-21T22:42:20.338Z,16.61
2022-08-21T22:44:47.912Z,16.64
2022-08-21T22:47:17.310Z,16.56
2022-08-21T22:49:44.261Z,16.56
2022-08-21T22:52:11.373Z,16.33
2022-08-21T22:54:38.843Z,16.06
2022-08-21T22:57:07.423Z,16.06
2022-08-21T22:59:37.124Z,15.80
2022-08-21T23:02:05.847Z,16.07
2022-08-21T23:04:33.704Z,16.15
2022-08-21T23:07:00.868Z,16.32
2022-08-21T23:09:27.262Z,16.29
2022-08-21T23:11:53.988Z,16.37
2022-08-21T23:14:22.934Z,16.16
2022-08-21T23:16:55.270Z,16.23
2022-08-21T23:19:30.573Z,16.21
2022-08-21T23:22:10.136Z,16.30
2022-08-21T23:25:00.190Z,16.29
2022-08-21T23:27:26.403Z,16.14
2022-08-21T23:30:14.076Z,15.97
2022-08-21T23:32:52.588Z,15.68
2022-08-21T23:35:23.009Z,15.89
2022-08-21T23:40:35.382Z,16.09
2022-08-21T23:43:15.124Z,16.10
2022-08-21T23:45:51.601Z,16.20
2022-08-21T23:48:36.239Z,16.24
2022-08-21T23:51:11.564Z,16.21
2022-08-21T23:53:38.449Z,16.16
2022-08-21T23:56:15.771Z,16.08
2022-08-21T23:58:46.125Z,16.08
